^^
Lisbon, NH - Weather Station Historical Data
Daily Summary for September 20, 2021 Units:  Both    English   Metric
Daily Weekly Monthly Yearly
  High: Low: Average:
Temperature: 73.5 °F /  23.1 °C 45.4 °F /  7.4 °C 57.6 °F /  14.2 °C
Dew Point: 58.5 °F /  14.7 °C 45.4 °F /  7.4 °C 52 °F /  11.1 °C
Humidity: 100% 50.6% 84%
Wind Speed: 4.1mph /  6.6km/h - 0.9mph /  1.4km/h
Wind Gust: 12mph /  19.3km/h - -
Wind- - South
Pressure: 30.37 in /  1028.3 hPa 30.24 in /  1023.9 hPa -
Precipitation: 0.00 in /  0 mm    
 
 
Tabular Data for September 20, 2021
Time Temperature Dew Point Pressure Wind Wind Speed Wind Gust Humidity Rainfall Rate (Hourly) solar
00:04 48.6 °F /  9.2 °C 48.6 °F /  9.2 °C 30.24in /  1023.9hPa Calm     100% 0.00in /  0mm 0 W/m2
00:09 48.6 °F /  9.2 °C 48.6 °F /  9.2 °C 30.24in /  1023.9hPa Calm   1mph /  1.6km/h 100% 0.00in /  0mm 0 W/m2
00:14 48.6 °F /  9.2 °C 48.6 °F /  9.2 °C 30.24in /  1023.9hPa Calm     100% 0.00in /  0mm 0 W/m2
00:19 48.6 °F /  9.2 °C 48.6 °F /  9.2 °C 30.24in /  1023.9hPa Calm     100% 0.00in /  0mm 0 W/m2
00:24 48.6 °F /  9.2 °C 48.6 °F /  9.2 °C 30.24in /  1023.9hPa Calm     100% 0.00in /  0mm 0 W/m2
00:29 48.5 °F /  9.2 °C 48.5 °F /  9.2 °C 30.25in /  1024.3hPa Calm     100% 0.00in /  0mm 0 W/m2
00:34 48.4 °F /  9.1 °C 48.4 °F /  9.1 °C 30.25in /  1024.3hPa Calm     100% 0.00in /  0mm 0 W/m2
00:39 48.2 °F /  9 °C 48.2 °F /  9 °C 30.25in /  1024.3hPa Calm     100% 0.00in /  0mm 0 W/m2
00:44 48.1 °F /  8.9 °C 48.1 °F /  8.9 °C 30.25in /  1024.3hPa Calm     100% 0.00in /  0mm 0 W/m2
00:49 48 °F /  8.9 °C 48 °F /  8.9 °C 30.25in /  1024.3hPa Calm     100% 0.00in /  0mm 0 W/m2
00:54 47.9 °F /  8.8 °C 47.9 °F /  8.8 °C 30.25in /  1024.3hPa Calm     100% 0.00in /  0mm 0 W/m2
00:59 47.7 °F /  8.7 °C 47.7 °F /  8.7 °C 30.25in /  1024.3hPa Calm     100% 0.00in /  0mm 0 W/m2
01:04 47.7 °F /  8.7 °C 47.7 °F /  8.7 °C 30.25in /  1024.3hPa Calm     100% 0.00in /  0mm 0 W/m2
01:09 47.6 °F /  8.7 °C 47.6 °F /  8.7 °C 30.25in /  1024.3hPa Calm     100% 0.00in /  0mm 0 W/m2
01:14 47.6 °F /  8.7 °C 47.6 °F /  8.7 °C 30.25in /  1024.3hPa Calm     100% 0.00in /  0mm 0 W/m2
01:19 47.5 °F /  8.6 °C 47.5 °F /  8.6 °C 30.25in /  1024.3hPa Calm     100% 0.00in /  0mm 0 W/m2
01:24 47.4 °F /  8.6 °C 47.4 °F /  8.6 °C 30.25in /  1024.3hPa Calm   1mph /  1.6km/h 100% 0.00in /  0mm 0 W/m2
01:29 47.3 °F /  8.5 °C 47.3 °F /  8.5 °C 30.26in /  1024.6hPa North 0.1mph /  0.2km/h 1mph /  1.6km/h 100% 0.00in /  0mm 0 W/m2
01:34 47.3 °F /  8.5 °C 47.3 °F /  8.5 °C 30.26in /  1024.6hPa Calm   1mph /  1.6km/h 100% 0.00in /  0mm 0 W/m2
01:39 47.1 °F /  8.4 °C 47.1 °F /  8.4 °C 30.26in /  1024.6hPa Calm     100% 0.00in /  0mm 0 W/m2
01:44 47.1 °F /  8.4 °C 47.1 °F /  8.4 °C 30.27in /  1024.9hPa Calm     100% 0.00in /  0mm 0 W/m2
01:49 47 °F /  8.3 °C 47 °F /  8.3 °C 30.27in /  1024.9hPa Calm     100% 0.00in /  0mm 0 W/m2
01:54 47 °F /  8.3 °C 47 °F /  8.3 °C 30.27in /  1024.9hPa Calm     100% 0.00in /  0mm 0 W/m2
01:59 47 °F /  8.3 °C 47 °F /  8.3 °C 30.27in /  1024.9hPa Calm     100% 0.00in /  0mm 0 W/m2
02:04 47 °F /  8.3 °C 47 °F /  8.3 °C 30.27in /  1024.9hPa Calm     100% 0.00in /  0mm 0 W/m2
02:09 47 °F /  8.3 °C 47 °F /  8.3 °C 30.27in /  1024.9hPa Calm     100% 0.00in /  0mm 0 W/m2
02:14 47 °F /  8.3 °C 47 °F /  8.3 °C 30.27in /  1024.9hPa Calm     100% 0.00in /  0mm 0 W/m2
02:19 47 °F /  8.3 °C 47 °F /  8.3 °C 30.27in /  1024.9hPa Calm     100% 0.00in /  0mm 0 W/m2
02:24 47 °F /  8.3 °C 47 °F /  8.3 °C 30.27in /  1024.9hPa Calm     100% 0.00in /  0mm 0 W/m2
02:29 47 °F /  8.3 °C 47 °F /  8.3 °C 30.27in /  1024.9hPa Calm     100% 0.00in /  0mm 0 W/m2
02:34 47 °F /  8.3 °C 47 °F /  8.3 °C 30.27in /  1024.9hPa Calm     100% 0.00in /  0mm 0 W/m2
02:39 47 °F /  8.3 °C 47 °F /  8.3 °C 30.27in /  1024.9hPa Calm     100% 0.00in /  0mm 0 W/m2
02:44 47 °F /  8.3 °C 47 °F /  8.3 °C 30.27in /  1024.9hPa Calm     100% 0.00in /  0mm 0 W/m2
02:49 47 °F /  8.3 °C 47 °F /  8.3 °C 30.26in /  1024.6hPa NE 0.5mph /  0.8km/h 2mph /  3.2km/h 100% 0.00in /  0mm 0 W/m2
02:54 47 °F /  8.3 °C 47 °F /  8.3 °C 30.26in /  1024.6hPa NE 1mph /  1.6km/h 2mph /  3.2km/h 100% 0.00in /  0mm 0 W/m2
02:59 47 °F /  8.3 °C 47 °F /  8.3 °C 30.27in /  1024.9hPa NE 0.6mph /  1km/h 2mph /  3.2km/h 100% 0.00in /  0mm 0 W/m2
03:04 46.9 °F /  8.3 °C 46.9 °F /  8.3 °C 30.27in /  1024.9hPa NE 0.3mph /  0.5km/h 1mph /  1.6km/h 100% 0.00in /  0mm 0 W/m2
03:09 46.8 °F /  8.2 °C 46.8 °F /  8.2 °C 30.27in /  1024.9hPa Calm     100% 0.00in /  0mm 0 W/m2
03:14 46.7 °F /  8.2 °C 46.7 °F /  8.2 °C 30.27in /  1024.9hPa Calm     100% 0.00in /  0mm 0 W/m2
03:19 46.7 °F /  8.2 °C 46.7 °F /  8.2 °C 30.27in /  1024.9hPa Calm     100% 0.00in /  0mm 0 W/m2
03:24 46.7 °F /  8.2 °C 46.7 °F /  8.2 °C 30.27in /  1024.9hPa Calm     100% 0.00in /  0mm 0 W/m2
03:29 46.5 °F /  8.1 °C 46.5 °F /  8.1 °C 30.27in /  1024.9hPa Calm     100% 0.00in /  0mm 0 W/m2
03:34 46.5 °F /  8.1 °C 46.5 °F /  8.1 °C 30.27in /  1024.9hPa Calm     100% 0.00in /  0mm 0 W/m2
03:39 46.5 °F /  8.1 °C 46.5 °F /  8.1 °C 30.27in /  1024.9hPa Calm     100% 0.00in /  0mm 0 W/m2
03:44 46.6 °F /  8.1 °C 46.6 °F /  8.1 °C 30.27in /  1024.9hPa Calm     100% 0.00in /  0mm 0 W/m2
03:49 46.7 °F /  8.2 °C 46.7 °F /  8.2 °C 30.27in /  1024.9hPa Calm     100% 0.00in /  0mm 0 W/m2
03:54 46.8 °F /  8.2 °C 46.8 °F /  8.2 °C 30.27in /  1024.9hPa Calm     100% 0.00in /  0mm 0 W/m2
03:59 46.7 °F /  8.2 °C 46.7 °F /  8.2 °C 30.28in /  1025.3hPa Calm     100% 0.00in /  0mm 0 W/m2
04:04 46.7 °F /  8.2 °C 46.7 °F /  8.2 °C 30.28in /  1025.3hPa Calm     100% 0.00in /  0mm 0 W/m2
04:09 46.7 °F /  8.2 °C 46.7 °F /  8.2 °C 30.28in /  1025.3hPa Calm     100% 0.00in /  0mm 0 W/m2
04:14 46.8 °F /  8.2 °C 46.8 °F /  8.2 °C 30.28in /  1025.3hPa Calm   1mph /  1.6km/h 100% 0.00in /  0mm 0 W/m2
04:19 46.8 °F /  8.2 °C 46.8 °F /  8.2 °C 30.28in /  1025.3hPa Calm   1mph /  1.6km/h 100% 0.00in /  0mm 0 W/m2
04:24 46.8 °F /  8.2 °C 46.8 °F /  8.2 °C 30.28in /  1025.3hPa Calm   1mph /  1.6km/h 100% 0.00in /  0mm 0 W/m2
04:29 46.8 °F /  8.2 °C 46.8 °F /  8.2 °C 30.28in /  1025.3hPa East 0.3mph /  0.5km/h 2mph /  3.2km/h 100% 0.00in /  0mm 0 W/m2
04:34 46.7 °F /  8.2 °C 46.7 °F /  8.2 °C 30.28in /  1025.3hPa Calm   1mph /  1.6km/h 100% 0.00in /  0mm 0 W/m2
04:39 46.7 °F /  8.2 °C 46.7 °F /  8.2 °C 30.28in /  1025.3hPa Calm   1mph /  1.6km/h 100% 0.00in /  0mm 0 W/m2
04:44 46.7 °F /  8.2 °C 46.7 °F /  8.2 °C 30.28in /  1025.3hPa Calm     100% 0.00in /  0mm 0 W/m2
04:49 46.7 °F /  8.2 °C 46.7 °F /  8.2 °C 30.28in /  1025.3hPa Calm     100% 0.00in /  0mm 0 W/m2
04:54 46.7 °F /  8.2 °C 46.7 °F /  8.2 °C 30.28in /  1025.3hPa Calm     100% 0.00in /  0mm 0 W/m2
04:59 46.7 °F /  8.2 °C 46.7 °F /  8.2 °C 30.29in /  1025.6hPa ENE 0.1mph /  0.2km/h 2mph /  3.2km/h 100% 0.00in /  0mm 0 W/m2
05:04 46.7 °F /  8.2 °C 46.7 °F /  8.2 °C 30.29in /  1025.6hPa ENE 0.5mph /  0.8km/h 2mph /  3.2km/h 100% 0.00in /  0mm 0 W/m2
05:09 46.8 °F /  8.2 °C 46.8 °F /  8.2 °C 30.29in /  1025.6hPa ENE 1.5mph /  2.4km/h 3mph /  4.8km/h 100% 0.00in /  0mm 0 W/m2
05:14 46.8 °F /  8.2 °C 46.8 °F /  8.2 °C 30.30in /  1026hPa ENE 1.3mph /  2.1km/h 3mph /  4.8km/h 100% 0.00in /  0mm 0 W/m2
05:19 46.8 °F /  8.2 °C 46.8 °F /  8.2 °C 30.30in /  1026hPa ENE 1.4mph /  2.3km/h 3mph /  4.8km/h 100% 0.00in /  0mm 0 W/m2
05:24 46.8 °F /  8.2 °C 46.8 °F /  8.2 °C 30.30in /  1026hPa ENE 1.3mph /  2.1km/h 3mph /  4.8km/h 100% 0.00in /  0mm 0 W/m2
05:29 46.7 °F /  8.2 °C 46.7 °F /  8.2 °C 30.30in /  1026hPa ENE 1.3mph /  2.1km/h 3mph /  4.8km/h 100% 0.00in /  0mm 0 W/m2
05:34 46.4 °F /  8 °C 46.4 °F /  8 °C 30.30in /  1026hPa ENE 0.9mph /  1.4km/h 2mph /  3.2km/h 100% 0.00in /  0mm 0 W/m2
05:39 46.4 °F /  8 °C 46.4 °F /  8 °C 30.30in /  1026hPa ENE 0.8mph /  1.3km/h 2mph /  3.2km/h 100% 0.00in /  0mm 0 W/m2
05:44 46.4 °F /  8 °C 46.4 °F /  8 °C 30.31in /  1026.3hPa ENE 0.3mph /  0.5km/h 2mph /  3.2km/h 100% 0.00in /  0mm 0 W/m2
05:49 46.4 °F /  8 °C 46.4 °F /  8 °C 30.31in /  1026.3hPa NE 0.4mph /  0.6km/h 2mph /  3.2km/h 100% 0.00in /  0mm 0 W/m2
05:54 46.4 °F /  8 °C 46.4 °F /  8 °C 30.31in /  1026.3hPa NE 0.4mph /  0.6km/h 2mph /  3.2km/h 100% 0.00in /  0mm 0 W/m2
05:59 46.4 °F /  8 °C 46.4 °F /  8 °C 30.31in /  1026.3hPa ENE 1mph /  1.6km/h 2mph /  3.2km/h 100% 0.00in /  0mm 0 W/m2
06:04 46.3 °F /  7.9 °C 46.3 °F /  7.9 °C 30.31in /  1026.3hPa ENE 1.2mph /  1.9km/h 2mph /  3.2km/h 100% 0.00in /  0mm 0 W/m2
06:09 46.4 °F /  8 °C 46.4 °F /  8 °C 30.31in /  1026.3hPa ENE 0.1mph /  0.2km/h 2mph /  3.2km/h 100% 0.00in /  0mm 0 W/m2
06:14 46.5 °F /  8.1 °C 46.5 °F /  8.1 °C 30.32in /  1026.6hPa Calm     100% 0.00in /  0mm 0 W/m2
06:19 46.5 °F /  8.1 °C 46.5 °F /  8.1 °C 30.32in /  1026.6hPa ENE 0.6mph /  1km/h 2mph /  3.2km/h 100% 0.00in /  0mm 0 W/m2
06:24 46.5 °F /  8.1 °C 46.5 °F /  8.1 °C 30.32in /  1026.6hPa ENE 1.1mph /  1.8km/h 3mph /  4.8km/h 100% 0.00in /  0mm 0 W/m2
06:29 46.5 °F /  8.1 °C 46.5 °F /  8.1 °C 30.32in /  1026.6hPa ENE 2mph /  3.2km/h 5mph /  8km/h 100% 0.00in /  0mm 0 W/m2
06:34 46.4 °F /  8 °C 46.4 °F /  8 °C 30.32in /  1026.6hPa NE 1.6mph /  2.6km/h 3mph /  4.8km/h 100% 0.00in /  0mm 5 W/m2
06:39 46.4 °F /  8 °C 46.4 °F /  8 °C 30.32in /  1026.6hPa NE 1.2mph /  1.9km/h 3mph /  4.8km/h 100% 0.00in /  0mm 5 W/m2
06:44 46.4 °F /  8 °C 46.4 °F /  8 °C 30.32in /  1026.6hPa ENE 2.1mph /  3.4km/h 5mph /  8km/h 100% 0.00in /  0mm 7 W/m2
06:49 46.2 °F /  7.9 °C 46.2 °F /  7.9 °C 30.32in /  1026.6hPa ENE 2mph /  3.2km/h 5mph /  8km/h 100% 0.00in /  0mm 9 W/m2
06:54 46 °F /  7.8 °C 46 °F /  7.8 °C 30.32in /  1026.6hPa NE 1.6mph /  2.6km/h 3mph /  4.8km/h 100% 0.00in /  0mm 11 W/m2
06:59 45.8 °F /  7.7 °C 45.8 °F /  7.7 °C 30.33in /  1027hPa NE 2.5mph /  4km/h 6mph /  9.7km/h 100% 0.00in /  0mm 18 W/m2
07:04 45.8 °F /  7.7 °C 45.8 °F /  7.7 °C 30.33in /  1027hPa ENE 2.5mph /  4km/h 5mph /  8km/h 100% 0.00in /  0mm 25 W/m2
07:09 45.8 °F /  7.7 °C 45.8 °F /  7.7 °C 30.33in /  1027hPa ENE 2.6mph /  4.2km/h 5mph /  8km/h 100% 0.00in /  0mm 25 W/m2
07:14 45.7 °F /  7.6 °C 45.7 °F /  7.6 °C 30.34in /  1027.3hPa ENE 2.8mph /  4.5km/h 6mph /  9.7km/h 100% 0.00in /  0mm 28 W/m2
07:19 45.7 °F /  7.6 °C 45.7 °F /  7.6 °C 30.34in /  1027.3hPa ENE 2.6mph /  4.2km/h 6mph /  9.7km/h 100% 0.00in /  0mm 28 W/m2
07:24 45.5 °F /  7.5 °C 45.5 °F /  7.5 °C 30.34in /  1027.3hPa ENE 2.7mph /  4.3km/h 6mph /  9.7km/h 100% 0.00in /  0mm 35 W/m2
07:29 45.5 °F /  7.5 °C 45.5 °F /  7.5 °C 30.34in /  1027.3hPa ENE 2.9mph /  4.7km/h 5mph /  8km/h 100% 0.00in /  0mm 55 W/m2
07:34 45.5 °F /  7.5 °C 45.5 °F /  7.5 °C 30.34in /  1027.3hPa ENE 2.9mph /  4.7km/h 6mph /  9.7km/h 100% 0.00in /  0mm 51 W/m2
07:39 45.4 °F /  7.4 °C 45.4 °F /  7.4 °C 30.34in /  1027.3hPa ENE 2.8mph /  4.5km/h 5mph /  8km/h 100% 0.00in /  0mm 58 W/m2
07:44 45.5 °F /  7.5 °C 45.5 °F /  7.5 °C 30.35in /  1027.7hPa ENE 2.8mph /  4.5km/h 6mph /  9.7km/h 100% 0.00in /  0mm 65 W/m2
07:49 45.7 °F /  7.6 °C 45.7 °F /  7.6 °C 30.35in /  1027.7hPa ENE 2.1mph /  3.4km/h 5mph /  8km/h 100% 0.00in /  0mm 69 W/m2
07:54 45.8 °F /  7.7 °C 45.8 °F /  7.7 °C 30.35in /  1027.7hPa ENE 2.4mph /  3.9km/h 5mph /  8km/h 100% 0.00in /  0mm 69 W/m2
07:59 46 °F /  7.8 °C 46 °F /  7.8 °C 30.35in /  1027.7hPa ENE 2.1mph /  3.4km/h 5mph /  8km/h 100% 0.00in /  0mm 81 W/m2
08:04 46.2 °F /  7.9 °C 46.2 °F /  7.9 °C 30.35in /  1027.7hPa ENE 2.1mph /  3.4km/h 4mph /  6.4km/h 100% 0.00in /  0mm 123 W/m2
08:09 46.4 °F /  8 °C 46.4 °F /  8 °C 30.35in /  1027.7hPa ENE 1.7mph /  2.7km/h 3mph /  4.8km/h 100% 0.00in /  0mm 176 W/m2
08:14 46.6 °F /  8.1 °C 46.6 °F /  8.1 °C 30.35in /  1027.7hPa ENE 1.3mph /  2.1km/h 3mph /  4.8km/h 100% 0.00in /  0mm 220 W/m2
08:19 46.8 °F /  8.2 °C 46.8 °F /  8.2 °C 30.35in /  1027.7hPa ESE 1mph /  1.6km/h 3mph /  4.8km/h 100% 0.00in /  0mm 157 W/m2
08:24 46.7 °F /  8.2 °C 46.7 °F /  8.2 °C 30.35in /  1027.7hPa East 0.4mph /  0.6km/h 2mph /  3.2km/h 100% 0.00in /  0mm 130 W/m2
08:29 47 °F /  8.3 °C 47 °F /  8.3 °C 30.36in /  1028hPa NE 0.5mph /  0.8km/h 2mph /  3.2km/h 100% 0.00in /  0mm 130 W/m2
08:34 47.5 °F /  8.6 °C 47.5 °F /  8.6 °C 30.36in /  1028hPa ENE 0.6mph /  1km/h 2mph /  3.2km/h 100% 0.00in /  0mm 167 W/m2
08:39 47.9 °F /  8.8 °C 47.9 °F /  8.8 °C 30.36in /  1028hPa ENE 0.9mph /  1.4km/h 2mph /  3.2km/h 100% 0.00in /  0mm 176 W/m2
08:44 48.2 °F /  9 °C 48.2 °F /  9 °C 30.36in /  1028hPa NE 0.9mph /  1.4km/h 2mph /  3.2km/h 100% 0.00in /  0mm 172 W/m2
08:49 48.3 °F /  9.1 °C 48.3 °F /  9.1 °C 30.36in /  1028hPa ENE 0.8mph /  1.3km/h 3mph /  4.8km/h 100% 0.00in /  0mm 174 W/m2
08:54 48.6 °F /  9.2 °C 48.6 °F /  9.2 °C 30.36in /  1028hPa ENE 0.9mph /  1.4km/h 3mph /  4.8km/h 100% 0.00in /  0mm 179 W/m2
08:59 48.7 °F /  9.3 °C 48.7 °F /  9.3 °C 30.36in /  1028hPa ENE 1.6mph /  2.6km/h 4mph /  6.4km/h 100% 0.00in /  0mm 220 W/m2
09:04 49 °F /  9.4 °C 49 °F /  9.4 °C 30.36in /  1028hPa ENE 1.7mph /  2.7km/h 4mph /  6.4km/h 100% 0.00in /  0mm 245 W/m2
09:09 49.4 °F /  9.7 °C 49.4 °F /  9.7 °C 30.36in /  1028hPa NE 1.5mph /  2.4km/h 3mph /  4.8km/h 100% 0.00in /  0mm 313 W/m2
09:14 49.8 °F /  9.9 °C 49.8 °F /  9.9 °C 30.37in /  1028.3hPa NE 1.5mph /  2.4km/h 4mph /  6.4km/h 100% 0.00in /  0mm 320 W/m2
09:19 50.6 °F /  10.3 °C 50.6 °F /  10.3 °C 30.37in /  1028.3hPa NE 1.2mph /  1.9km/h 3mph /  4.8km/h 100% 0.00in /  0mm 596 W/m2
09:24 51.8 °F /  11 °C 51.8 °F /  11 °C 30.37in /  1028.3hPa ENE 1.9mph /  3.1km/h 4mph /  6.4km/h 100% 0.00in /  0mm 604 W/m2
09:29 52.9 °F /  11.6 °C 52.9 °F /  11.6 °C 30.37in /  1028.3hPa NE 2.1mph /  3.4km/h 4mph /  6.4km/h 100% 0.00in /  0mm 516 W/m2
09:34 54 °F /  12.2 °C 54 °F /  12.2 °C 30.37in /  1028.3hPa ENE 1.5mph /  2.4km/h 5mph /  8km/h 100% 0.00in /  0mm 526 W/m2
09:39 54.8 °F /  12.7 °C 54.4 °F /  12.4 °C 30.37in /  1028.3hPa NE 2.4mph /  3.9km/h 6mph /  9.7km/h 98.4% 0.00in /  0mm 535 W/m2
09:44 55.4 °F /  13 °C 53.9 °F /  12.2 °C 30.37in /  1028.3hPa NE 1.3mph /  2.1km/h 3mph /  4.8km/h 94.6% 0.00in /  0mm 552 W/m2
09:49 55.8 °F /  13.2 °C 53.4 °F /  11.9 °C 30.36in /  1028hPa ENE 1.2mph /  1.9km/h 3mph /  4.8km/h 91.5% 0.00in /  0mm 565 W/m2
09:54 55.6 °F /  13.1 °C 52.6 °F /  11.4 °C 30.36in /  1028hPa ESE 0.9mph /  1.4km/h 2mph /  3.2km/h 89.4% 0.00in /  0mm 581 W/m2
09:59 55.7 °F /  13.2 °C 52.2 °F /  11.2 °C 30.36in /  1028hPa SE 1.3mph /  2.1km/h 3mph /  4.8km/h 88% 0.00in /  0mm 591 W/m2
10:04 56.1 °F /  13.4 °C 52.3 °F /  11.3 °C 30.36in /  1028hPa ENE 1.5mph /  2.4km/h 3mph /  4.8km/h 87% 0.00in /  0mm 602 W/m2
10:09 56.2 °F /  13.4 °C 51.8 °F /  11 °C 30.36in /  1028hPa East 1.5mph /  2.4km/h 2mph /  3.2km/h 85.2% 0.00in /  0mm 611 W/m2
10:14 56.4 °F /  13.6 °C 51.8 °F /  11 °C 30.36in /  1028hPa SE 1.5mph /  2.4km/h 3mph /  4.8km/h 84.4% 0.00in /  0mm 621 W/m2
10:19 56.8 °F /  13.8 °C 51.6 °F /  10.9 °C 30.36in /  1028hPa ESE 1.4mph /  2.3km/h 3mph /  4.8km/h 82.7% 0.00in /  0mm 632 W/m2
10:24 57.4 °F /  14.1 °C 51.8 °F /  11 °C 30.36in /  1028hPa SSE 1.4mph /  2.3km/h 3mph /  4.8km/h 81.7% 0.00in /  0mm 640 W/m2
10:29 57.9 °F /  14.4 °C 52.1 °F /  11.2 °C 30.36in /  1028hPa South 1.8mph /  2.9km/h 3mph /  4.8km/h 80.9% 0.00in /  0mm 649 W/m2
10:34 58.4 °F /  14.7 °C 52.2 °F /  11.2 °C 30.36in /  1028hPa East 1.4mph /  2.3km/h 3mph /  4.8km/h 79.9% 0.00in /  0mm 658 W/m2
10:39 58.9 °F /  14.9 °C 52.3 °F /  11.3 °C 30.36in /  1028hPa SSE 1.2mph /  1.9km/h 3mph /  4.8km/h 78.7% 0.00in /  0mm 667 W/m2
10:44 59.5 °F /  15.3 °C 52.6 °F /  11.4 °C 30.36in /  1028hPa SSE 1.5mph /  2.4km/h 3mph /  4.8km/h 77.9% 0.00in /  0mm 676 W/m2
10:49 60 °F /  15.6 °C 52.6 °F /  11.4 °C 30.35in /  1027.7hPa South 1.7mph /  2.7km/h 3mph /  4.8km/h 76.5% 0.00in /  0mm 686 W/m2
10:54 60.6 °F /  15.9 °C 52.8 °F /  11.6 °C 30.35in /  1027.7hPa South 1mph /  1.6km/h 3mph /  4.8km/h 75.6% 0.00in /  0mm 693 W/m2
10:59 61.4 °F /  16.3 °C 52.8 °F /  11.6 °C 30.35in /  1027.7hPa SSE 0.8mph /  1.3km/h 3mph /  4.8km/h 73.5% 0.00in /  0mm 700 W/m2
11:04 62 °F /  16.7 °C 52.9 °F /  11.6 °C 30.35in /  1027.7hPa South 1.9mph /  3.1km/h 3mph /  4.8km/h 72.1% 0.00in /  0mm 709 W/m2
11:09 62.6 °F /  17 °C 53.2 °F /  11.8 °C 30.35in /  1027.7hPa SSW 2mph /  3.2km/h 5mph /  8km/h 71.5% 0.00in /  0mm 714 W/m2
11:14 63 °F /  17.2 °C 53.5 °F /  11.9 °C 30.35in /  1027.7hPa South 2.3mph /  3.7km/h 6mph /  9.7km/h 71.1% 0.00in /  0mm 720 W/m2
11:19 63.5 °F /  17.5 °C 53.6 °F /  12 °C 30.34in /  1027.3hPa SSW 2.8mph /  4.5km/h 7mph /  11.3km/h 70.3% 0.00in /  0mm 727 W/m2
11:24 63.6 °F /  17.6 °C 53.4 °F /  11.9 °C 30.34in /  1027.3hPa SSW 2.2mph /  3.5km/h 7mph /  11.3km/h 69.4% 0.00in /  0mm 730 W/m2
11:29 64.1 °F /  17.8 °C 53.6 °F /  12 °C 30.34in /  1027.3hPa SSW 1.5mph /  2.4km/h 7mph /  11.3km/h 68.8% 0.00in /  0mm 735 W/m2
11:34 65 °F /  18.3 °C 53.8 °F /  12.1 °C 30.33in /  1027hPa SW 3.6mph /  5.8km/h 7mph /  11.3km/h 66.9% 0.00in /  0mm 741 W/m2
11:39 65.3 °F /  18.5 °C 54 °F /  12.2 °C 30.33in /  1027hPa SSW 1.6mph /  2.6km/h 6mph /  9.7km/h 66.8% 0.00in /  0mm 743 W/m2
11:44 65.7 °F /  18.7 °C 54.3 °F /  12.4 °C 30.33in /  1027hPa SW 4.1mph /  6.6km/h 6mph /  9.7km/h 66.7% 0.00in /  0mm 748 W/m2
11:49 66.1 °F /  18.9 °C 54.2 °F /  12.3 °C 30.32in /  1026.6hPa SSW 3.2mph /  5.1km/h 6mph /  9.7km/h 65.5% 0.00in /  0mm 751 W/m2
11:54 66.2 °F /  19 °C 54.4 °F /  12.4 °C 30.32in /  1026.6hPa SSW 3.4mph /  5.5km/h 7mph /  11.3km/h 65.9% 0.00in /  0mm 755 W/m2
11:59 66.5 °F /  19.2 °C 54.4 °F /  12.4 °C 30.32in /  1026.6hPa SSW 3mph /  4.8km/h 7mph /  11.3km/h 65% 0.00in /  0mm 758 W/m2
12:04 67.2 °F /  19.6 °C 55.4 °F /  13 °C 30.32in /  1026.6hPa SW 1.3mph /  2.1km/h 5mph /  8km/h 65.9% 0.00in /  0mm 760 W/m2
12:09 67.9 °F /  19.9 °C 55.4 °F /  13 °C 30.32in /  1026.6hPa SSW 2.9mph /  4.7km/h 7mph /  11.3km/h 64.2% 0.00in /  0mm 762 W/m2
12:14 68.3 °F /  20.2 °C 55.1 °F /  12.8 °C 30.32in /  1026.6hPa SSW 2.1mph /  3.4km/h 7mph /  11.3km/h 62.7% 0.00in /  0mm 764 W/m2
12:19 68.6 °F /  20.3 °C 55.8 °F /  13.2 °C 30.31in /  1026.3hPa SW 1.1mph /  1.8km/h 3mph /  4.8km/h 63.8% 0.00in /  0mm 764 W/m2
12:24 69.2 °F /  20.7 °C 56.1 °F /  13.4 °C 30.31in /  1026.3hPa WSW 1.4mph /  2.3km/h 7mph /  11.3km/h 62.9% 0.00in /  0mm 765 W/m2
12:29 69.5 °F /  20.8 °C 55.7 °F /  13.2 °C 30.31in /  1026.3hPa SSW 2.1mph /  3.4km/h 7mph /  11.3km/h 61.4% 0.00in /  0mm 767 W/m2
12:34 69.9 °F /  21.1 °C 56.7 °F /  13.7 °C 30.31in /  1026.3hPa WSW 1mph /  1.6km/h 3mph /  4.8km/h 63% 0.00in /  0mm 765 W/m2
12:39 70.4 °F /  21.3 °C 56.1 °F /  13.4 °C 30.31in /  1026.3hPa SSW 1mph /  1.6km/h 3mph /  4.8km/h 60.5% 0.00in /  0mm 765 W/m2
12:44 70.8 °F /  21.6 °C 56.1 °F /  13.4 °C 30.31in /  1026.3hPa SW 1.6mph /  2.6km/h 6mph /  9.7km/h 59.7% 0.00in /  0mm 765 W/m2
12:49 71.3 °F /  21.8 °C 56.7 °F /  13.7 °C 30.31in /  1026.3hPa WNW 1mph /  1.6km/h 5mph /  8km/h 60% 0.00in /  0mm 765 W/m2
12:54 71.5 °F /  21.9 °C 56.8 °F /  13.8 °C 30.31in /  1026.3hPa West 1mph /  1.6km/h 7mph /  11.3km/h 59.7% 0.00in /  0mm 762 W/m2
12:59 71.6 °F /  22 °C 56.6 °F /  13.7 °C 30.31in /  1026.3hPa SW 1.7mph /  2.7km/h 7mph /  11.3km/h 59.1% 0.00in /  0mm 760 W/m2
13:04 71.7 °F /  22.1 °C 56.2 °F /  13.4 °C 30.30in /  1026hPa WNW 1.1mph /  1.8km/h 6mph /  9.7km/h 58.3% 0.00in /  0mm 757 W/m2
13:09 72 °F /  22.2 °C 56.4 °F /  13.6 °C 30.30in /  1026hPa WSW 1.8mph /  2.9km/h 6mph /  9.7km/h 58% 0.00in /  0mm 753 W/m2
13:14 72.1 °F /  22.3 °C 56.5 °F /  13.6 °C 30.30in /  1026hPa SSW 1.6mph /  2.6km/h 7mph /  11.3km/h 57.8% 0.00in /  0mm 750 W/m2
13:19 72.3 °F /  22.4 °C 56.3 °F /  13.5 °C 30.30in /  1026hPa NNW 1.3mph /  2.1km/h 3mph /  4.8km/h 57.1% 0.00in /  0mm 744 W/m2
13:24 72.5 °F /  22.5 °C 56.3 °F /  13.5 °C 30.30in /  1026hPa WSW 2mph /  3.2km/h 6mph /  9.7km/h 56.8% 0.00in /  0mm 741 W/m2
13:29 72.9 °F /  22.7 °C 56.9 °F /  13.8 °C 30.30in /  1026hPa SW 0.8mph /  1.3km/h 6mph /  9.7km/h 57.2% 0.00in /  0mm 737 W/m2
13:34 73.2 °F /  22.9 °C 56.2 °F /  13.4 °C 30.29in /  1025.6hPa WSW 1.5mph /  2.4km/h 5mph /  8km/h 55.2% 0.00in /  0mm 732 W/m2
13:39 73 °F /  22.8 °C 56.6 °F /  13.7 °C 30.29in /  1025.6hPa WSW 1mph /  1.6km/h 6mph /  9.7km/h 56.4% 0.00in /  0mm 727 W/m2
13:44 73.1 °F /  22.8 °C 56.7 °F /  13.7 °C 30.29in /  1025.6hPa NW 0.8mph /  1.3km/h 3mph /  4.8km/h 56.4% 0.00in /  0mm 720 W/m2
13:49 73.3 °F /  22.9 °C 56.8 °F /  13.8 °C 30.28in /  1025.3hPa SW 1.6mph /  2.6km/h 7mph /  11.3km/h 56.2% 0.00in /  0mm 713 W/m2
13:54 73.4 °F /  23 °C 57.7 °F /  14.3 °C 30.28in /  1025.3hPa NW 1mph /  1.6km/h 3mph /  4.8km/h 57.9% 0.00in /  0mm 706 W/m2
13:59 73.2 °F /  22.9 °C 56.6 °F /  13.7 °C 30.28in /  1025.3hPa WNW 0.8mph /  1.3km/h 3mph /  4.8km/h 56.2% 0.00in /  0mm 699 W/m2
14:04 73 °F /  22.8 °C 55.8 °F /  13.2 °C 30.28in /  1025.3hPa SW 3.1mph /  5km/h 9mph /  14.5km/h 54.9% 0.00in /  0mm 690 W/m2
14:09 73 °F /  22.8 °C 55.5 °F /  13.1 °C 30.28in /  1025.3hPa SSW 2mph /  3.2km/h 7mph /  11.3km/h 54.1% 0.00in /  0mm 684 W/m2
14:14 73.3 °F /  22.9 °C 56.5 °F /  13.6 °C 30.28in /  1025.3hPa SW 3mph /  4.8km/h 7mph /  11.3km/h 55.7% 0.00in /  0mm 684 W/m2
14:19 73.3 °F /  22.9 °C 54.3 °F /  12.4 °C 30.28in /  1025.3hPa SSW 2.4mph /  3.9km/h 6mph /  9.7km/h 51.4% 0.00in /  0mm 684 W/m2
14:24 73.4 °F /  23 °C 55.6 °F /  13.1 °C 30.28in /  1025.3hPa SW 1.3mph /  2.1km/h 5mph /  8km/h 53.6% 0.00in /  0mm 684 W/m2
14:29 73.5 °F /  23.1 °C 56.5 °F /  13.6 °C 30.28in /  1025.3hPa SW 1.6mph /  2.6km/h 6mph /  9.7km/h 55.3% 0.00in /  0mm 537 W/m2
14:34 73.4 °F /  23 °C 54.8 °F /  12.7 °C 30.28in /  1025.3hPa SW 2.3mph /  3.7km/h 10mph /  16.1km/h 52.1% 0.00in /  0mm 311 W/m2
14:39 73.2 °F /  22.9 °C 54.9 °F /  12.7 °C 30.28in /  1025.3hPa NW 1.1mph /  1.8km/h 3mph /  4.8km/h 52.6% 0.00in /  0mm 100 W/m2
14:44 73.2 °F /  22.9 °C 55.3 °F /  12.9 °C 30.28in /  1025.3hPa WNW 1.1mph /  1.8km/h 4mph /  6.4km/h 53.5% 0.00in /  0mm 55 W/m2
14:49 73 °F /  22.8 °C 55 °F /  12.8 °C 30.27in /  1024.9hPa SW 2mph /  3.2km/h 7mph /  11.3km/h 53.3% 0.00in /  0mm 42 W/m2
14:54 73 °F /  22.8 °C 54.9 °F /  12.7 °C 30.27in /  1024.9hPa SW 2.2mph /  3.5km/h 7mph /  11.3km/h 53.1% 0.00in /  0mm 42 W/m2
14:59 72.9 °F /  22.7 °C 53.5 °F /  11.9 °C 30.27in /  1024.9hPa SW 3.2mph /  5.1km/h 9mph /  14.5km/h 50.6% 0.00in /  0mm 42 W/m2
15:04 72.7 °F /  22.6 °C 54.5 °F /  12.5 °C 30.27in /  1024.9hPa SW 1mph /  1.6km/h 5mph /  8km/h 52.8% 0.00in /  0mm 42 W/m2
15:09 72.7 °F /  22.6 °C 54.6 °F /  12.6 °C 30.27in /  1024.9hPa WSW 1mph /  1.6km/h 5mph /  8km/h 53% 0.00in /  0mm 42 W/m2
15:14 72.7 °F /  22.6 °C 55.4 °F /  13 °C 30.27in /  1024.9hPa SW 0.9mph /  1.4km/h 3mph /  4.8km/h 54.5% 0.00in /  0mm 48 W/m2
15:19 72.6 °F /  22.6 °C 54.8 °F /  12.7 °C 30.27in /  1024.9hPa SW 2.3mph /  3.7km/h 8mph /  12.9km/h 53.7% 0.00in /  0mm 46 W/m2
15:24 72.5 °F /  22.5 °C 54.5 °F /  12.5 °C 30.27in /  1024.9hPa West 0.6mph /  1km/h 6mph /  9.7km/h 53.3% 0.00in /  0mm 44 W/m2
15:29 72.5 °F /  22.5 °C 55.4 °F /  13 °C 30.27in /  1024.9hPa WSW 0.6mph /  1km/h 2mph /  3.2km/h 54.9% 0.00in /  0mm 44 W/m2
15:34 72.3 °F /  22.4 °C 54.8 °F /  12.7 °C 30.27in /  1024.9hPa NW 0.5mph /  0.8km/h 3mph /  4.8km/h 54.1% 0.00in /  0mm 39 W/m2
15:39 72.3 °F /  22.4 °C 54.2 °F /  12.3 °C 30.27in /  1024.9hPa SW 2.6mph /  4.2km/h 7mph /  11.3km/h 53% 0.00in /  0mm 74 W/m2
15:44 72.3 °F /  22.4 °C 53.9 °F /  12.2 °C 30.27in /  1024.9hPa SW 1.8mph /  2.9km/h 6mph /  9.7km/h 52.4% 0.00in /  0mm 40 W/m2
15:49 72.3 °F /  22.4 °C 54.6 °F /  12.6 °C 30.27in /  1024.9hPa SW 1.6mph /  2.6km/h 6mph /  9.7km/h 53.7% 0.00in /  0mm 42 W/m2
15:54 72.2 °F /  22.3 °C 54.1 °F /  12.3 °C 30.27in /  1024.9hPa WSW 2.8mph /  4.5km/h 8mph /  12.9km/h 52.9% 0.00in /  0mm 35 W/m2
15:59 72.1 °F /  22.3 °C 54.3 °F /  12.4 °C 30.27in /  1024.9hPa SW 2.5mph /  4km/h 8mph /  12.9km/h 53.4% 0.00in /  0mm 46 W/m2
16:04 72 °F /  22.2 °C 55.2 °F /  12.9 °C 30.27in /  1024.9hPa WSW 0.1mph /  0.2km/h 6mph /  9.7km/h 55.4% 0.00in /  0mm 39 W/m2
16:09 72 °F /  22.2 °C 55.5 °F /  13.1 °C 30.27in /  1024.9hPa SSW 0.1mph /  0.2km/h 1mph /  1.6km/h 56% 0.00in /  0mm 51 W/m2
16:14 72 °F /  22.2 °C 56.1 °F /  13.4 °C 30.27in /  1024.9hPa SW 0.5mph /  0.8km/h 2mph /  3.2km/h 57.3% 0.00in /  0mm 33 W/m2
16:19 72 °F /  22.2 °C 56.2 °F /  13.4 °C 30.27in /  1024.9hPa NW 0.4mph /  0.6km/h 1mph /  1.6km/h 57.4% 0.00in /  0mm 35 W/m2
16:24 72.1 °F /  22.3 °C 55.6 °F /  13.1 °C 30.27in /  1024.9hPa South 0.4mph /  0.6km/h 2mph /  3.2km/h 56.2% 0.00in /  0mm 91 W/m2
16:29 72.1 °F /  22.3 °C 55.6 °F /  13.1 °C 30.28in /  1025.3hPa SSE 0.8mph /  1.3km/h 2mph /  3.2km/h 56.1% 0.00in /  0mm 46 W/m2
16:34 72.1 °F /  22.3 °C 55.2 °F /  12.9 °C 30.28in /  1025.3hPa SW 2.2mph /  3.5km/h 12mph /  19.3km/h 55.3% 0.00in /  0mm 32 W/m2
16:39 72 °F /  22.2 °C 53.9 °F /  12.2 °C 30.28in /  1025.3hPa SW 2.6mph /  4.2km/h 9mph /  14.5km/h 52.9% 0.00in /  0mm 30 W/m2
16:44 72 °F /  22.2 °C 54.6 °F /  12.6 °C 30.28in /  1025.3hPa WSW 1.6mph /  2.6km/h 6mph /  9.7km/h 54.3% 0.00in /  0mm 30 W/m2
16:49 71.9 °F /  22.2 °C 54.4 °F /  12.4 °C 30.27in /  1024.9hPa SW 1.9mph /  3.1km/h 6mph /  9.7km/h 54.2% 0.00in /  0mm 32 W/m2
16:54 71.8 °F /  22.1 °C 54.4 °F /  12.4 °C 30.27in /  1024.9hPa SW 0.6mph /  1km/h 6mph /  9.7km/h 54.2% 0.00in /  0mm 32 W/m2
16:59 71.7 °F /  22.1 °C 55.3 °F /  12.9 °C 30.27in /  1024.9hPa SW 0.8mph /  1.3km/h 2mph /  3.2km/h 56.3% 0.00in /  0mm 28 W/m2
17:04 71.6 °F /  22 °C 54.9 °F /  12.7 °C 30.27in /  1024.9hPa SSW 2.9mph /  4.7km/h 8mph /  12.9km/h 55.7% 0.00in /  0mm 30 W/m2
17:09 71.6 °F /  22 °C 54.6 °F /  12.6 °C 30.27in /  1024.9hPa SSW 1.7mph /  2.7km/h 6mph /  9.7km/h 55% 0.00in /  0mm 28 W/m2
17:14 71.8 °F /  22.1 °C 55 °F /  12.8 °C 30.28in /  1025.3hPa SSW 2mph /  3.2km/h 7mph /  11.3km/h 55.4% 0.00in /  0mm 26 W/m2
17:19 71.6 °F /  22 °C 55.8 °F /  13.2 °C 30.28in /  1025.3hPa South 0.7mph /  1.1km/h 5mph /  8km/h 57.5% 0.00in /  0mm 26 W/m2
17:24 71.3 °F /  21.8 °C 57.1 °F /  13.9 °C 30.28in /  1025.3hPa SSW 0.7mph /  1.1km/h 3mph /  4.8km/h 60.7% 0.00in /  0mm 26 W/m2
17:29 70.9 °F /  21.6 °C 55.9 °F /  13.3 °C 30.28in /  1025.3hPa SW 0.4mph /  0.6km/h 2mph /  3.2km/h 59.1% 0.00in /  0mm 26 W/m2
17:34 70.7 °F /  21.5 °C 57.3 °F /  14.1 °C 30.28in /  1025.3hPa WSW 0.4mph /  0.6km/h 2mph /  3.2km/h 62.5% 0.00in /  0mm 25 W/m2
17:39 70.3 °F /  21.3 °C 55.9 °F /  13.3 °C 30.28in /  1025.3hPa SSW 1.6mph /  2.6km/h 7mph /  11.3km/h 60.4% 0.00in /  0mm 25 W/m2
17:44 70.1 °F /  21.2 °C 55.2 °F /  12.9 °C 30.28in /  1025.3hPa SSW 1.2mph /  1.9km/h 7mph /  11.3km/h 59.1% 0.00in /  0mm 25 W/m2
17:49 69.9 °F /  21.1 °C 57 °F /  13.9 °C 30.28in /  1025.3hPa West 0.6mph /  1km/h 2mph /  3.2km/h 63.7% 0.00in /  0mm 23 W/m2
17:54 69.4 °F /  20.8 °C 57 °F /  13.9 °C 30.28in /  1025.3hPa SSW 1.5mph /  2.4km/h 6mph /  9.7km/h 64.7% 0.00in /  0mm 21 W/m2
17:59 68.8 °F /  20.4 °C 56.8 °F /  13.8 °C 30.29in /  1025.6hPa WSW 0.9mph /  1.4km/h 3mph /  4.8km/h 65.6% 0.00in /  0mm 16 W/m2
18:04 68.3 °F /  20.2 °C 57.3 °F /  14.1 °C 30.29in /  1025.6hPa NW 0.8mph /  1.3km/h 3mph /  4.8km/h 68% 0.00in /  0mm 14 W/m2
18:09 67.7 °F /  19.8 °C 57.7 °F /  14.3 °C 30.29in /  1025.6hPa NW 0.1mph /  0.2km/h 2mph /  3.2km/h 70.4% 0.00in /  0mm 14 W/m2
18:14 67.1 °F /  19.5 °C 57.7 °F /  14.3 °C 30.29in /  1025.6hPa WNW 0.6mph /  1km/h 2mph /  3.2km/h 71.9% 0.00in /  0mm 12 W/m2
18:19 66.5 °F /  19.2 °C 57.6 °F /  14.2 °C 30.29in /  1025.6hPa NW 0.5mph /  0.8km/h 2mph /  3.2km/h 73.1% 0.00in /  0mm 12 W/m2
18:24 65.9 °F /  18.8 °C 57.7 °F /  14.3 °C 30.29in /  1025.6hPa NNW 0.3mph /  0.5km/h 2mph /  3.2km/h 74.9% 0.00in /  0mm 12 W/m2
18:29 65.3 °F /  18.5 °C 57.7 °F /  14.3 °C 30.29in /  1025.6hPa NNW 0.4mph /  0.6km/h 2mph /  3.2km/h 76.2% 0.00in /  0mm 11 W/m2
18:34 64.8 °F /  18.2 °C 57.7 °F /  14.3 °C 30.29in /  1025.6hPa NNW 0.1mph /  0.2km/h 2mph /  3.2km/h 77.7% 0.00in /  0mm 9 W/m2
18:39 64.3 °F /  17.9 °C 57.7 °F /  14.3 °C 30.29in /  1025.6hPa Calm   1mph /  1.6km/h 79.3% 0.00in /  0mm 7 W/m2
18:44 63.8 °F /  17.7 °C 58.1 °F /  14.5 °C 30.29in /  1025.6hPa NNW 0.1mph /  0.2km/h 1mph /  1.6km/h 81.6% 0.00in /  0mm 5 W/m2
18:49 63.3 °F /  17.4 °C 58.5 °F /  14.7 °C 30.29in /  1025.6hPa NNW 0.2mph /  0.3km/h 1mph /  1.6km/h 84.1% 0.00in /  0mm 5 W/m2
18:54 62.9 °F /  17.2 °C 58.4 °F /  14.7 °C 30.29in /  1025.6hPa Calm   1mph /  1.6km/h 85.3% 0.00in /  0mm 0 W/m2
18:59 62.5 °F /  16.9 °C 58.2 °F /  14.6 °C 30.30in /  1026hPa NNW 0.1mph /  0.2km/h 3mph /  4.8km/h 86% 0.00in /  0mm 0 W/m2
19:04 62.1 °F /  16.7 °C 58.2 °F /  14.6 °C 30.30in /  1026hPa NNW 0.4mph /  0.6km/h 3mph /  4.8km/h 86.8% 0.00in /  0mm 0 W/m2
19:09 61.7 °F /  16.5 °C 57.8 °F /  14.3 °C 30.30in /  1026hPa NNW 0.2mph /  0.3km/h 1mph /  1.6km/h 87% 0.00in /  0mm 0 W/m2
19:14 61.4 °F /  16.3 °C 57.6 °F /  14.2 °C 30.30in /  1026hPa NW 0.1mph /  0.2km/h 1mph /  1.6km/h 87.3% 0.00in /  0mm 0 W/m2
19:19 61.1 °F /  16.2 °C 57.5 °F /  14.2 °C 30.30in /  1026hPa Calm     88% 0.00in /  0mm 0 W/m2
19:24 60.8 °F /  16 °C 57.3 °F /  14.1 °C 30.30in /  1026hPa Calm     88% 0.00in /  0mm 0 W/m2
19:29 60.5 °F /  15.8 °C 57.1 °F /  13.9 °C 30.30in /  1026hPa NW 0.3mph /  0.5km/h 2mph /  3.2km/h 88.5% 0.00in /  0mm 0 W/m2
19:34 60.3 °F /  15.7 °C 57 °F /  13.9 °C 30.30in /  1026hPa NW 0.4mph /  0.6km/h 2mph /  3.2km/h 89% 0.00in /  0mm 0 W/m2
19:39 60 °F /  15.6 °C 56.9 °F /  13.8 °C 30.30in /  1026hPa NW 0.2mph /  0.3km/h 2mph /  3.2km/h 89.4% 0.00in /  0mm 0 W/m2
19:44 59.8 °F /  15.4 °C 56.9 °F /  13.8 °C 30.31in /  1026.3hPa Calm   2mph /  3.2km/h 90% 0.00in /  0mm 0 W/m2
19:49 59.5 °F /  15.3 °C 56.6 °F /  13.7 °C 30.31in /  1026.3hPa Calm     90% 0.00in /  0mm 0 W/m2
19:54 59.3 °F /  15.2 °C 56.5 °F /  13.6 °C 30.31in /  1026.3hPa Calm     90.5% 0.00in /  0mm 0 W/m2
19:59 59.1 °F /  15.1 °C 56.5 °F /  13.6 °C 30.32in /  1026.6hPa NW 0.1mph /  0.2km/h 1mph /  1.6km/h 91% 0.00in /  0mm 0 W/m2
20:04 58.9 °F /  14.9 °C 56.3 °F /  13.5 °C 30.32in /  1026.6hPa Calm   1mph /  1.6km/h 91% 0.00in /  0mm 0 W/m2
20:09 58.8 °F /  14.9 °C 56.5 °F /  13.6 °C 30.32in /  1026.6hPa Calm     91.8% 0.00in /  0mm 0 W/m2
20:14 58.7 °F /  14.8 °C 56.4 °F /  13.6 °C 30.32in /  1026.6hPa Calm     92% 0.00in /  0mm 0 W/m2
20:19 58.6 °F /  14.8 °C 56.3 °F /  13.5 °C 30.32in /  1026.6hPa Calm     92% 0.00in /  0mm 0 W/m2
20:24 58.4 °F /  14.7 °C 56.2 °F /  13.4 °C 30.32in /  1026.6hPa NW 0.1mph /  0.2km/h 1mph /  1.6km/h 92.3% 0.00in /  0mm 0 W/m2
20:29 58.4 °F /  14.7 °C 56.4 °F /  13.6 °C 30.32in /  1026.6hPa Calm     93.1% 0.00in /  0mm 0 W/m2
20:34 58.4 °F /  14.7 °C 56.7 °F /  13.7 °C 30.32in /  1026.6hPa Calm   1mph /  1.6km/h 94% 0.00in /  0mm 0 W/m2
20:39 58.3 °F /  14.6 °C 56.6 °F /  13.7 °C 30.32in /  1026.6hPa NW 0.2mph /  0.3km/h 1mph /  1.6km/h 94% 0.00in /  0mm 0 W/m2
20:44 58.1 °F /  14.5 °C 56.4 °F /  13.6 °C 30.33in /  1027hPa NW 0.1mph /  0.2km/h 1mph /  1.6km/h 94% 0.00in /  0mm 0 W/m2
20:49 57.9 °F /  14.4 °C 56.4 °F /  13.6 °C 30.33in /  1027hPa Calm   1mph /  1.6km/h 94.5% 0.00in /  0mm 0 W/m2
20:54 57.7 °F /  14.3 °C 56.3 °F /  13.5 °C 30.33in /  1027hPa Calm     95% 0.00in /  0mm 0 W/m2
20:59 57.6 °F /  14.2 °C 56.2 °F /  13.4 °C 30.33in /  1027hPa Calm     95% 0.00in /  0mm 0 W/m2
21:04 57.5 °F /  14.2 °C 56.3 °F /  13.5 °C 30.33in /  1027hPa Calm     95.8% 0.00in /  0mm 0 W/m2
21:09 57.3 °F /  14.1 °C 56.2 °F /  13.4 °C 30.33in /  1027hPa Calm     96% 0.00in /  0mm 0 W/m2
21:14 57.2 °F /  14 °C 56.1 °F /  13.4 °C 30.33in /  1027hPa Calm     96% 0.00in /  0mm 0 W/m2
21:19 57 °F /  13.9 °C 55.9 °F /  13.3 °C 30.33in /  1027hPa Calm   1mph /  1.6km/h 96% 0.00in /  0mm 0 W/m2
21:24 56.9 °F /  13.8 °C 55.8 °F /  13.2 °C 30.33in /  1027hPa Calm   1mph /  1.6km/h 96.3% 0.00in /  0mm 0 W/m2
21:29 56.7 °F /  13.7 °C 55.8 °F /  13.2 °C 30.33in /  1027hPa Calm     97% 0.00in /  0mm 0 W/m2
21:34 56.5 °F /  13.6 °C 55.6 °F /  13.1 °C 30.32in /  1026.6hPa NW 0.1mph /  0.2km/h 1mph /  1.6km/h 97% 0.00in /  0mm 0 W/m2
21:39 56.2 °F /  13.4 °C 55.4 °F /  13 °C 30.32in /  1026.6hPa NW 0.1mph /  0.2km/h 1mph /  1.6km/h 97% 0.00in /  0mm 0 W/m2
21:44 56 °F /  13.3 °C 55.3 °F /  12.9 °C 30.32in /  1026.6hPa Calm     97.5% 0.00in /  0mm 0 W/m2
21:49 55.9 °F /  13.3 °C 55.3 °F /  12.9 °C 30.32in /  1026.6hPa Calm     97.8% 0.00in /  0mm 0 W/m2
21:54 55.8 °F /  13.2 °C 55.3 °F /  12.9 °C 30.32in /  1026.6hPa Calm     98% 0.00in /  0mm 0 W/m2
21:59 55.7 °F /  13.2 °C 55.1 °F /  12.8 °C 30.32in /  1026.6hPa Calm     98% 0.00in /  0mm 0 W/m2
22:04 55.6 °F /  13.1 °C 55.1 °F /  12.8 °C 30.32in /  1026.6hPa Calm     98% 0.00in /  0mm 0 W/m2
22:09 55.4 °F /  13 °C 54.9 °F /  12.7 °C 30.32in /  1026.6hPa Calm   1mph /  1.6km/h 98% 0.00in /  0mm 0 W/m2
22:14 55.3 °F /  12.9 °C 55 °F /  12.8 °C 30.32in /  1026.6hPa NW 0.1mph /  0.2km/h 1mph /  1.6km/h 98.8% 0.00in /  0mm 0 W/m2
22:19 55.2 °F /  12.9 °C 54.9 °F /  12.7 °C 30.32in /  1026.6hPa Calm     99% 0.00in /  0mm 0 W/m2
22:24 55.1 °F /  12.8 °C 54.8 °F /  12.7 °C 30.32in /  1026.6hPa Calm     99% 0.00in /  0mm 0 W/m2
22:29 55 °F /  12.8 °C 54.7 °F /  12.6 °C 30.32in /  1026.6hPa Calm     99% 0.00in /  0mm 0 W/m2
22:34 54.9 °F /  12.7 °C 54.6 °F /  12.6 °C 30.32in /  1026.6hPa Calm     99% 0.00in /  0mm 0 W/m2
22:39 54.8 °F /  12.7 °C 54.5 °F /  12.5 °C 30.32in /  1026.6hPa Calm     99% 0.00in /  0mm 0 W/m2
22:44 54.6 °F /  12.6 °C 54.3 °F /  12.4 °C 30.33in /  1027hPa Calm     99% 0.00in /  0mm 0 W/m2
22:49 54.5 °F /  12.5 °C 54.5 °F /  12.5 °C 30.33in /  1027hPa Calm     100% 0.00in /  0mm 0 W/m2
22:54 54.4 °F /  12.4 °C 54.4 °F /  12.4 °C 30.33in /  1027hPa Calm     100% 0.00in /  0mm 0 W/m2
22:59 54.2 °F /  12.3 °C 54.2 °F /  12.3 °C 30.33in /  1027hPa Calm     100% 0.00in /  0mm 0 W/m2
Lisbon, New Hampshire, USA
Compliments of Weather Underground - 4 mb